Time;durP1;ratioP1;P1;durP2;ratioP2;P2;SDS_P1;SDS_P2;PMS_P1;PMS_P2;Temp;Humidity;BMP_temperature;BMP_pressure;BME280_temperature;BME280_humidity;BME280_pressure;Samples;Min_cycle;Max_cycle;Signal;HPM_P1;HPM_P2
2023/02/27 00:01:06;;;;;;;1.85;1.52;;;;;;;;;;5033099;28;20207;-77
2023/02/27 00:03:34;;;;;;;2.55;2.35;;;;;;;;;;5033244;28;20227;-77
2023/02/27 00:06:01;;;;;;;3.40;2.10;;;;;;;;;;5033738;28;20196;-77
2023/02/27 00:08:28;;;;;;;2.00;1.58;;;;;;;;;;5045738;22;20230;-81
2023/02/27 00:10:55;;;;;;;4.35;2.33;;;;;;;;;;5022298;28;20226;-81
2023/02/27 00:13:22;;;;;;;3.60;2.00;;;;;;;;;;5014046;28;20196;-80
2023/02/27 00:15:50;;;;;;;4.53;1.80;;;;;;;;;;5013309;28;20200;-80
2023/02/27 00:18:17;;;;;;;3.35;2.15;;;;;;;;;;5021986;28;20219;-81
2023/02/27 00:20:47;;;;;;;1.77;1.42;;;;;;;;;;5026311;28;20327;-80
2023/02/27 00:23:15;;;;;;;4.68;2.33;;;;;;;;;;5012702;28;20200;-82
2023/02/27 00:25:42;;;;;;;9.10;2.30;;;;;;;;;;5013610;28;20199;-80
2023/02/27 00:28:09;;;;;;;2.65;1.92;;;;;;;;;;5029766;28;20230;-81
2023/02/27 00:30:36;;;;;;;1.77;1.60;;;;;;;;;;5033226;28;20199;-80
2023/02/27 00:33:03;;;;;;;4.22;2.17;;;;;;;;;;5022003;28;20196;-80
2023/02/27 00:35:30;;;;;;;3.35;2.38;;;;;;;;;;5013453;28;20211;-80
2023/02/27 00:37:59;;;;;;;2.13;1.90;;;;;;;;;;5012662;28;20725;-81
2023/02/27 00:40:26;;;;;;;3.03;1.80;;;;;;;;;;5032239;28;20195;-81
2023/02/27 00:42:53;;;;;;;2.58;2.22;;;;;;;;;;5030338;28;20191;-80
2023/02/27 00:45:20;;;;;;;2.55;1.98;;;;;;;;;;5030843;28;20230;-81
2023/02/27 00:47:47;;;;;;;3.65;2.22;;;;;;;;;;5032982;28;20247;-80
2023/02/27 00:50:16;;;;;;;2.30;2.10;;;;;;;;;;5025469;28;20216;-80
2023/02/27 00:52:43;;;;;;;4.60;2.30;;;;;;;;;;5012614;28;20291;-80
2023/02/27 00:55:12;;;;;;;3.53;1.95;;;;;;;;;;5012391;28;20200;-80
2023/02/27 00:57:39;;;;;;;3.85;2.10;;;;;;;;;;5029001;28;20227;-80
2023/02/27 01:00:07;;;;;;;2.80;2.00;;;;;;;;;;5031209;28;20199;-80
2023/02/27 01:02:35;;;;;;;3.97;2.05;;;;;;;;;;5032370;28;20200;-81
2023/02/27 01:05:02;;;;;;;4.45;2.40;;;;;;;;;;5032259;28;20254;-80
2023/02/27 01:07:29;;;;;;;4.35;2.15;;;;;;;;;;5032519;28;20237;-80
2023/02/27 01:09:57;;;;;;;3.42;2.22;;;;;;;;;;5030713;28;20203;-80
2023/02/27 01:12:25;;;;;;;4.35;1.85;;;;;;;;;;5032376;28;20199;-81
2023/02/27 01:14:52;;;;;;;2.55;1.85;;;;;;;;;;5021970;28;20683;-81
2023/02/27 01:17:19;;;;;;;3.60;2.03;;;;;;;;;;5012637;28;20693;-80
2023/02/27 01:19:46;;;;;;;2.95;2.15;;;;;;;;;;5011799;28;20653;-80
2023/02/27 01:22:14;;;;;;;3.45;2.30;;;;;;;;;;5011869;28;20196;-81
2023/02/27 01:24:41;;;;;;;2.05;1.85;;;;;;;;;;5012005;28;20419;-81
2023/02/27 01:27:08;;;;;;;3.75;2.38;;;;;;;;;;5012575;28;20224;-81
2023/02/27 01:29:36;;;;;;;3.08;1.90;;;;;;;;;;5011837;28;20200;-81
2023/02/27 01:32:03;;;;;;;5.63;2.70;;;;;;;;;;5011423;28;20204;-80
2023/02/27 01:34:30;;;;;;;3.45;2.53;;;;;;;;;;5012369;28;20192;-80
2023/02/27 01:36:57;;;;;;;2.15;1.73;;;;;;;;;;5011869;28;20223;-80
2023/02/27 01:39:25;;;;;;;2.65;2.00;;;;;;;;;;5012380;28;20200;-80
2023/02/27 01:41:52;;;;;;;3.30;1.70;;;;;;;;;;5014033;28;20210;-80
2023/02/27 01:44:20;;;;;;;3.78;2.03;;;;;;;;;;5031852;28;20553;-80
2023/02/27 01:46:48;;;;;;;3.28;1.83;;;;;;;;;;5030161;28;20211;-80
2023/02/27 01:49:18;;;;;;;3.95;2.10;;;;;;;;;;5032158;28;20205;-80
2023/02/27 01:51:46;;;;;;;2.33;2.13;;;;;;;;;;5031239;28;20292;-80
2023/02/27 01:54:16;;;;;;;3.75;2.05;;;;;;;;;;5029788;28;20198;-81
2023/02/27 01:56:43;;;;;;;2.67;2.40;;;;;;;;;;5031530;28;20219;-81
2023/02/27 01:59:11;;;;;;;3.40;2.08;;;;;;;;;;5031775;28;20203;-80
2023/02/27 02:01:38;;;;;;;4.53;2.30;;;;;;;;;;5031334;28;20207;-81
2023/02/27 02:04:10;;;;;;;3.78;2.33;;;;;;;;;;5009666;28;20242;-81
2023/02/27 02:06:39;;;;;;;5.80;2.65;;;;;;;;;;5014648;28;20230;-81
2023/02/27 02:09:06;;;;;;;5.78;2.10;;;;;;;;;;5018883;28;20207;-80
2023/02/27 02:11:33;;;;;;;3.10;2.13;;;;;;;;;;5018287;28;20199;-80
2023/02/27 02:14:02;;;;;;;3.45;2.15;;;;;;;;;;5026829;28;20202;-80
2023/02/27 02:16:40;;;;;;;3.60;2.08;;;;;;;;;;5038548;28;20195;-80
2023/02/27 02:19:20;;;;;;;5.95;2.58;;;;;;;;;;5032861;28;20203;-80
2023/02/27 02:22:14;;;;;;;2.20;2.00;;;;;;;;;;5018580;28;20659;-81
2023/02/27 02:24:53;;;;;;;6.70;3.03;;;;;;;;;;4993043;28;20235;-79
2023/02/27 02:27:26;;;;;;;3.88;1.98;;;;;;;;;;5038232;28;20229;-80
2023/02/27 02:30:07;;;;;;;2.85;2.20;;;;;;;;;;5028927;28;20207;-80
2023/02/27 02:32:49;;;;;;;2.80;1.85;;;;;;;;;;5018037;28;20227;-80
2023/02/27 02:35:32;;;;;;;4.53;2.10;;;;;;;;;;5007534;28;20414;-80
2023/02/27 02:38:22;;;;;;;2.50;2.00;;;;;;;;;;5018671;28;20219;-80
2023/02/27 02:40:54;;;;;;;3.42;1.98;;;;;;;;;;5018404;28;20196;-81
2023/02/27 02:43:28;;;;;;;3.30;2.50;;;;;;;;;;5033178;28;20649;-80
2023/02/27 02:46:01;;;;;;;2.15;1.90;;;;;;;;;;5032529;28;20223;-80
2023/02/27 02:48:31;;;;;;;3.20;1.92;;;;;;;;;;5025549;28;20223;-80
2023/02/27 02:51:04;;;;;;;7.30;2.35;;;;;;;;;;5037811;28;20199;-80
2023/02/27 02:53:37;;;;;;;2.30;1.80;;;;;;;;;;5019172;28;20203;-80
2023/02/27 02:56:06;;;;;;;2.08;1.88;;;;;;;;;;5038237;28;20203;-79
2023/02/27 02:58:36;;;;;;;2.80;2.20;;;;;;;;;;5037992;28;20226;-79
2023/02/27 03:01:08;;;;;;;2.25;1.85;;;;;;;;;;5037597;28;20212;-80
2023/02/27 03:03:37;;;;;;;3.00;2.33;;;;;;;;;;5020773;28;20262;-79
2023/02/27 03:06:07;;;;;;;6.35;2.20;;;;;;;;;;5017287;28;20230;-79
2023/02/27 03:08:37;;;;;;;3.42;1.75;;;;;;;;;;5022118;28;20720;-81
2023/02/27 03:11:05;;;;;;;6.43;2.60;;;;;;;;;;5037900;28;20207;-81
2023/02/27 03:13:35;;;;;;;1.90;1.65;;;;;;;;;;5037334;28;20206;-81
2023/02/27 03:16:05;;;;;;;3.15;2.45;;;;;;;;;;5035149;28;20199;-81
2023/02/27 03:18:35;;;;;;;3.35;2.25;;;;;;;;;;5034443;28;20592;-80
2023/02/27 03:21:04;;;;;;;4.95;2.25;;;;;;;;;;5034958;28;20221;-80
2023/02/27 03:23:33;;;;;;;3.58;2.25;;;;;;;;;;5020476;28;20616;-80
2023/02/27 03:26:03;;;;;;;3.65;2.38;;;;;;;;;;5014504;28;20311;-80
2023/02/27 03:28:32;;;;;;;4.10;2.40;;;;;;;;;;5014936;28;20247;-80
2023/02/27 03:31:04;;;;;;;2.97;2.00;;;;;;;;;;5013883;28;20211;-80
2023/02/27 03:33:35;;;;;;;5.32;2.58;;;;;;;;;;5018774;28;20215;-80
2023/02/27 03:36:06;;;;;;;5.25;2.25;;;;;;;;;;5034651;28;20195;-80
2023/02/27 03:38:36;;;;;;;2.65;2.03;;;;;;;;;;5032375;28;20220;-79
2023/02/27 03:41:10;;;;;;;1.85;1.70;;;;;;;;;;5014866;28;20208;-80
2023/02/27 03:43:44;;;;;;;2.30;2.08;;;;;;;;;;5013856;28;20677;-80
2023/02/27 03:46:12;;;;;;;7.78;1.90;;;;;;;;;;5014627;28;20227;-80
2023/02/27 03:48:43;;;;;;;4.50;2.45;;;;;;;;;;5014558;28;20220;-80
2023/02/27 03:51:10;;;;;;;4.15;2.13;;;;;;;;;;5014393;28;20208;-80
2023/02/27 03:53:42;;;;;;;2.72;1.90;;;;;;;;;;5016776;28;20200;-80
2023/02/27 03:56:12;;;;;;;4.60;2.65;;;;;;;;;;5033990;28;20503;-80
2023/02/27 03:58:39;;;;;;;3.90;2.00;;;;;;;;;;5034119;28;20200;-81
2023/02/27 04:01:07;;;;;;;6.07;2.10;;;;;;;;;;5032208;28;20225;-81
2023/02/27 04:03:36;;;;;;;5.65;2.25;;;;;;;;;;5016663;28;20208;-81
2023/02/27 04:07:21;;;;;;;1.70;1.60;;;;;;;;;;5024571;28;20219;-80
2023/02/27 04:08:56;;;;;;;2.70;2.03;;;;;;;;;;5033534;28;20730;-80
2023/02/27 04:11:35;;;;;;;4.22;2.13;;;;;;;;;;5031139;28;20199;-80
2023/02/27 04:14:14;;;;;;;3.35;2.30;;;;;;;;;;5032860;28;20245;-80
2023/02/27 04:16:59;;;;;;;3.97;2.60;;;;;;;;;;5033351;28;20723;-80
2023/02/27 04:19:44;;;;;;;3.53;2.55;;;;;;;;;;5023237;28;20203;-80
2023/02/27 04:22:18;;;;;;;5.40;2.38;;;;;;;;;;5033116;28;20200;-80
2023/02/27 04:24:50;;;;;;;3.92;2.10;;;;;;;;;;5031722;28;20584;-79
2023/02/27 04:27:23;;;;;;;2.53;2.13;;;;;;;;;;5031265;28;20231;-80
2023/02/27 04:29:54;;;;;;;2.50;2.30;;;;;;;;;;5032475;28;20550;-80
2023/02/27 04:32:25;;;;;;;3.35;2.58;;;;;;;;;;5031424;28;20264;-80
2023/02/27 04:34:54;;;;;;;8.27;2.30;;;;;;;;;;5033426;28;20218;-80
2023/02/27 04:37:24;;;;;;;3.58;2.72;;;;;;;;;;5031234;28;20238;-80
2023/02/27 04:39:55;;;;;;;3.25;2.53;;;;;;;;;;5014873;28;20238;-80
2023/02/27 04:42:26;;;;;;;6.13;2.88;;;;;;;;;;5015237;28;20322;-80
2023/02/27 04:44:56;;;;;;;3.45;2.45;;;;;;;;;;5012890;28;20220;-80
2023/02/27 04:47:24;;;;;;;2.60;2.30;;;;;;;;;;5025753;28;20230;-80
2023/02/27 04:49:53;;;;;;;2.97;2.42;;;;;;;;;;5033103;28;20203;-80
2023/02/27 04:52:23;;;;;;;5.35;2.50;;;;;;;;;;5031966;28;20579;-79
2023/02/27 04:54:52;;;;;;;3.28;2.42;;;;;;;;;;5032660;28;20215;-80
2023/02/27 04:57:21;;;;;;;5.03;2.80;;;;;;;;;;5032847;28;20739;-79
2023/02/27 04:59:52;;;;;;;5.47;2.30;;;;;;;;;;5012673;28;20211;-79
2023/02/27 05:02:23;;;;;;;3.28;2.60;;;;;;;;;;5012780;28;20211;-80
2023/02/27 05:04:51;;;;;;;3.42;2.45;;;;;;;;;;5018024;28;20289;-80
2023/02/27 05:07:20;;;;;;;3.10;2.80;;;;;;;;;;5032019;28;20720;-80
2023/02/27 05:09:50;;;;;;;4.07;2.10;;;;;;;;;;5032044;28;20217;-79
2023/02/27 05:12:20;;;;;;;5.22;2.88;;;;;;;;;;5032317;28;20273;-80
2023/02/27 05:14:51;;;;;;;4.72;2.40;;;;;;;;;;5030847;28;20618;-80
2023/02/27 05:17:20;;;;;;;2.70;2.42;;;;;;;;;;5032441;28;20246;-80
2023/02/27 05:19:47;;;;;;;2.88;2.13;;;;;;;;;;5032488;28;20207;-80
2023/02/27 05:22:20;;;;;;;5.10;2.40;;;;;;;;;;5031971;28;20203;-80
2023/02/27 05:24:50;;;;;;;3.35;2.53;;;;;;;;;;5032168;28;20207;-80
2023/02/27 05:27:20;;;;;;;5.53;2.70;;;;;;;;;;5031410;28;20231;-79
2023/02/27 05:29:50;;;;;;;3.47;2.40;;;;;;;;;;5011624;28;20211;-80
2023/02/27 05:32:21;;;;;;;3.05;2.00;;;;;;;;;;5012493;28;20203;-80
2023/02/27 05:34:52;;;;;;;6.03;3.03;;;;;;;;;;5012615;28;20196;-80
2023/02/27 05:37:21;;;;;;;4.07;2.70;;;;;;;;;;5012765;28;20224;-79
2023/02/27 05:39:49;;;;;;;10.82;3.47;;;;;;;;;;5016807;28;20204;-79
2023/02/27 05:42:19;;;;;;;2.88;2.53;;;;;;;;;;5011725;28;20246;-80
2023/02/27 05:44:49;;;;;;;3.00;2.65;;;;;;;;;;5027558;28;20701;-79
2023/02/27 05:47:20;;;;;;;5.90;3.30;;;;;;;;;;5018222;28;20589;-79
2023/02/27 05:49:49;;;;;;;5.22;3.10;;;;;;;;;;5019524;28;20195;-78
2023/02/27 05:52:17;;;;;;;3.17;2.60;;;;;;;;;;5031356;28;20218;-78
2023/02/27 05:54:48;;;;;;;5.43;3.50;;;;;;;;;;5031343;28;20203;-79
2023/02/27 05:57:16;;;;;;;4.47;2.60;;;;;;;;;;5031868;28;20219;-79
2023/02/27 05:59:45;;;;;;;4.20;2.83;;;;;;;;;;5031635;28;20206;-79
2023/02/27 06:02:13;;;;;;;4.45;2.80;;;;;;;;;;5026822;28;20195;-79
2023/02/27 06:04:42;;;;;;;5.45;3.33;;;;;;;;;;5012235;28;20566;-79
2023/02/27 06:07:09;;;;;;;11.43;4.18;;;;;;;;;;5038725;22;20235;-77
2023/02/27 06:09:36;;;;;;;4.50;2.92;;;;;;;;;;5051886;28;20301;-78
2023/02/27 06:12:04;;;;;;;5.57;3.05;;;;;;;;;;5051561;28;20676;-77
2023/02/27 06:14:31;;;;;;;6.25;3.10;;;;;;;;;;5051596;28;20221;-78
2023/02/27 06:16:58;;;;;;;11.07;3.85;;;;;;;;;;5050567;28;20592;-77
2023/02/27 06:19:25;;;;;;;5.88;2.85;;;;;;;;;;5049150;28;20726;-77
2023/02/27 06:21:54;;;;;;;4.82;3.05;;;;;;;;;;5036454;28;20248;-78
2023/02/27 06:24:21;;;;;;;4.70;3.03;;;;;;;;;;5038119;28;20226;-77
2023/02/27 06:26:48;;;;;;;5.47;3.35;;;;;;;;;;5050511;28;20277;-77
2023/02/27 06:32:04;;;;;;;5.10;3.30;;;;;;;;;;5050504;28;20213;-77
2023/02/27 06:34:31;;;;;;;6.95;3.13;;;;;;;;;;5049317;28;20641;-78
2023/02/27 06:37:00;;;;;;;5.18;2.90;;;;;;;;;;5048534;28;20814;-77
2023/02/27 06:39:27;;;;;;;6.93;3.00;;;;;;;;;;5049101;28;20290;-77
2023/02/27 06:41:55;;;;;;;6.07;2.92;;;;;;;;;;5040327;28;20644;-78
2023/02/27 06:44:22;;;;;;;4.05;2.92;;;;;;;;;;5050464;28;20195;-77
2023/02/27 06:46:50;;;;;;;3.45;2.72;;;;;;;;;;5048217;28;20272;-76
2023/02/27 06:49:17;;;;;;;3.70;3.40;;;;;;;;;;5048764;28;20565;-77
2023/02/27 06:51:44;;;;;;;4.78;3.30;;;;;;;;;;5049535;28;20459;-77
2023/02/27 06:54:13;;;;;;;6.00;3.50;;;;;;;;;;5044040;28;20639;-77
2023/02/27 06:56:40;;;;;;;9.80;3.50;;;;;;;;;;5051267;28;20190;-77
2023/02/27 06:59:07;;;;;;;7.47;3.13;;;;;;;;;;5049166;28;20195;-76
2023/02/27 07:01:34;;;;;;;3.45;3.15;;;;;;;;;;5053185;28;20203;-76
2023/02/27 07:04:01;;;;;;;3.17;2.65;;;;;;;;;;5052469;28;20228;-77
2023/02/27 07:06:29;;;;;;;3.45;3.13;;;;;;;;;;5047103;28;20237;-78
2023/02/27 07:08:56;;;;;;;3.63;3.00;;;;;;;;;;5038371;28;20309;-77
2023/02/27 07:11:24;;;;;;;5.10;3.33;;;;;;;;;;5050454;28;20226;-77
2023/02/27 07:13:51;;;;;;;6.25;3.17;;;;;;;;;;5046910;28;20202;-77
2023/02/27 07:16:18;;;;;;;3.55;2.65;;;;;;;;;;5053262;28;20191;-77
2023/02/27 07:18:45;;;;;;;5.30;2.80;;;;;;;;;;5043906;28;20683;-77
2023/02/27 07:21:14;;;;;;;3.13;2.78;;;;;;;;;;5051608;28;20220;-77
2023/02/27 07:23:41;;;;;;;4.82;2.50;;;;;;;;;;5050626;28;20774;-77
2023/02/27 07:26:08;;;;;;;4.10;2.90;;;;;;;;;;5047131;28;20733;-77
2023/02/27 07:28:37;;;;;;;3.17;2.67;;;;;;;;;;5051495;28;20634;-78
2023/02/27 07:31:04;;;;;;;4.07;3.25;;;;;;;;;;5046258;28;20286;-78
2023/02/27 07:33:32;;;;;;;4.50;2.90;;;;;;;;;;5049023;28;20207;-78
2023/02/27 07:36:00;;;;;;;3.83;2.40;;;;;;;;;;5051996;28;20256;-78
2023/02/27 07:38:27;;;;;;;6.60;3.40;;;;;;;;;;5043426;28;20214;-78
2023/02/27 07:40:54;;;;;;;4.30;2.65;;;;;;;;;;5052999;28;20191;-78
2023/02/27 07:43:21;;;;;;;5.80;2.65;;;;;;;;;;5053405;28;20221;-78
2023/02/27 07:45:50;;;;;;;4.43;2.90;;;;;;;;;;5043490;28;20323;-77
2023/02/27 07:48:17;;;;;;;3.65;2.45;;;;;;;;;;5049241;28;20284;-78
2023/02/27 07:50:44;;;;;;;3.35;2.83;;;;;;;;;;5049498;28;20202;-80
2023/02/27 07:53:12;;;;;;;3.45;2.50;;;;;;;;;;5045949;28;20191;-78
2023/02/27 07:55:39;;;;;;;6.18;2.50;;;;;;;;;;5051013;28;20248;-78
2023/02/27 07:58:06;;;;;;;6.00;3.00;;;;;;;;;;5053690;28;20222;-78
2023/02/27 08:00:33;;;;;;;5.35;2.55;;;;;;;;;;5053384;28;20207;-78
2023/02/27 08:03:02;;;;;;;7.50;2.72;;;;;;;;;;5053015;28;20205;-78
2023/02/27 08:05:29;;;;;;;10.32;2.58;;;;;;;;;;5047499;28;20213;-78
2023/02/27 08:07:56;;;;;;;4.53;2.30;;;;;;;;;;5051989;28;20226;-78
2023/02/27 08:10:23;;;;;;;6.88;2.90;;;;;;;;;;5046603;28;20218;-78
2023/02/27 08:12:50;;;;;;;2.65;2.03;;;;;;;;;;5047301;28;20273;-77
2023/02/27 08:15:18;;;;;;;3.50;2.50;;;;;;;;;;5051813;28;20217;-77
2023/02/27 08:17:45;;;;;;;2.35;2.15;;;;;;;;;;5053038;28;20721;-81
2023/02/27 08:20:14;;;;;;;5.75;2.63;;;;;;;;;;5047800;28;20194;-80
2023/02/27 08:22:41;;;;;;;2.47;1.80;;;;;;;;;;5050584;28;20194;-76
2023/02/27 08:25:10;;;;;;;2.40;1.80;;;;;;;;;;5050333;28;20576;-75
2023/02/27 08:27:37;;;;;;;3.15;1.88;;;;;;;;;;5050645;28;20639;-75
2023/02/27 08:30:06;;;;;;;4.50;2.00;;;;;;;;;;5047603;28;20203;-76
2023/02/27 08:32:33;;;;;;;2.60;1.63;;;;;;;;;;5046152;28;20203;-76
2023/02/27 08:35:01;;;;;;;3.20;1.83;;;;;;;;;;5043101;28;20628;-75
2023/02/27 08:37:29;;;;;;;2.20;2.00;;;;;;;;;;5052069;28;20225;-76
2023/02/27 08:39:56;;;;;;;3.15;1.67;;;;;;;;;;5045731;28;20194;-76
2023/02/27 08:42:23;;;;;;;1.95;1.75;;;;;;;;;;5050406;28;20576;-76
2023/02/27 08:44:50;;;;;;;2.50;2.00;;;;;;;;;;5042106;28;20197;-75
2023/02/27 08:47:17;;;;;;;2.50;1.80;;;;;;;;;;5045511;28;20223;-76
2023/02/27 08:49:45;;;;;;;1.90;1.70;;;;;;;;;;5043585;28;20194;-76
2023/02/27 08:52:12;;;;;;;5.28;2.35;;;;;;;;;;5047141;28;20601;-77
2023/02/27 08:54:40;;;;;;;2.58;2.13;;;;;;;;;;5043047;28;20190;-76
2023/02/27 08:57:07;;;;;;;4.13;2.40;;;;;;;;;;5053040;28;20214;-76
2023/02/27 08:59:34;;;;;;;3.95;2.00;;;;;;;;;;5042390;28;20194;-76
2023/02/27 09:02:01;;;;;;;1.67;1.50;;;;;;;;;;5049891;28;20198;-77
2023/02/27 09:04:29;;;;;;;3.92;2.10;;;;;;;;;;5050301;28;20286;-77
2023/02/27 09:06:56;;;;;;;4.82;2.13;;;;;;;;;;5049531;28;20223;-77
2023/02/27 09:09:23;;;;;;;3.13;2.03;;;;;;;;;;5046766;28;21783;-76
2023/02/27 09:11:52;;;;;;;5.13;2.35;;;;;;;;;;5050588;28;20782;-76
2023/02/27 09:14:19;;;;;;;2.35;1.77;;;;;;;;;;5039252;28;20293;-77
2023/02/27 09:16:47;;;;;;;3.20;2.35;;;;;;;;;;5031688;28;20191;-76
2023/02/27 09:19:14;;;;;;;1.83;1.70;;;;;;;;;;5045807;28;20210;-76
2023/02/27 09:21:41;;;;;;;3.00;1.92;;;;;;;;;;5051898;28;20273;-76
2023/02/27 09:24:08;;;;;;;5.93;2.30;;;;;;;;;;5032274;28;20207;-77
2023/02/27 09:26:36;;;;;;;4.53;1.90;;;;;;;;;;5036762;28;20264;-76
2023/02/27 09:29:04;;;;;;;4.95;4.35;;;;;;;;;;5047001;28;20222;-76
2023/02/27 09:31:32;;;;;;;3.95;2.10;;;;;;;;;;5048201;28;20282;-77
2023/02/27 09:34:00;;;;;;;3.08;2.00;;;;;;;;;;5052147;28;20198;-77
2023/02/27 09:36:27;;;;;;;1.73;1.40;;;;;;;;;;5045977;28;20278;-76
2023/02/27 09:38:55;;;;;;;3.42;2.10;;;;;;;;;;5044611;28;20305;-77
2023/02/27 09:41:29;;;;;;;2.20;1.80;;;;;;;;;;5043076;28;20195;-77
2023/02/27 09:43:56;;;;;;;3.10;2.17;;;;;;;;;;5041683;28;20206;-77
2023/02/27 09:46:25;;;;;;;2.17;1.73;;;;;;;;;;5047524;28;20301;-81
2023/02/27 09:48:53;;;;;;;4.45;2.33;;;;;;;;;;5040100;28;20215;-78
2023/02/27 09:51:21;;;;;;;2.28;1.98;;;;;;;;;;5042603;28;20196;-78
2023/02/27 09:53:50;;;;;;;1.90;1.70;;;;;;;;;;5045943;28;20461;-77
2023/02/27 09:56:21;;;;;;;5.10;2.33;;;;;;;;;;5046404;28;20195;-78
2023/02/27 09:58:51;;;;;;;3.38;2.00;;;;;;;;;;5049168;28;20715;-79
2023/02/27 10:01:22;;;;;;;2.08;1.73;;;;;;;;;;5046108;28;20195;-79
2023/02/27 10:04:03;;;;;;;5.78;1.92;;;;;;;;;;5048398;28;20277;-77
2023/02/27 10:06:36;;;;;;;4.60;2.20;;;;;;;;;;5041994;28;20210;-77
2023/02/27 10:09:08;;;;;;;2.10;1.80;;;;;;;;;;5049080;28;20234;-78
2023/02/27 10:11:39;;;;;;;3.20;2.42;;;;;;;;;;5050996;28;20193;-77
2023/02/27 10:14:14;;;;;;;3.85;2.15;;;;;;;;;;5040850;28;20217;-76
2023/02/27 10:16:41;;;;;;;2.50;2.00;;;;;;;;;;5051096;28;20201;-74
2023/02/27 10:19:14;;;;;;;3.53;2.10;;;;;;;;;;5044223;28;20204;-74
2023/02/27 10:21:44;;;;;;;3.08;2.00;;;;;;;;;;5050419;28;20214;-74
2023/02/27 10:24:17;;;;;;;3.10;1.90;;;;;;;;;;5049524;28;20268;-74
2023/02/27 10:26:46;;;;;;;3.13;2.60;;;;;;;;;;5040483;28;20237;-76
2023/02/27 10:29:18;;;;;;;2.13;1.80;;;;;;;;;;5045547;28;20226;-74
2023/02/27 10:31:47;;;;;;;4.20;1.90;;;;;;;;;;5052173;28;20195;-75
2023/02/27 10:34:15;;;;;;;3.70;1.45;;;;;;;;;;5049433;28;20648;-76
2023/02/27 10:36:45;;;;;;;2.25;1.33;;;;;;;;;;5053851;28;20220;-76
2023/02/27 10:39:14;;;;;;;2.78;2.10;;;;;;;;;;5050696;28;20198;-76
2023/02/27 10:41:42;;;;;;;1.60;1.50;;;;;;;;;;5051604;28;20197;-76
2023/02/27 10:44:11;;;;;;;2.92;1.70;;;;;;;;;;5052753;28;20205;-76
2023/02/27 10:46:38;;;;;;;3.00;1.48;;;;;;;;;;5051946;28;20225;-76
2023/02/27 10:49:12;;;;;;;1.35;1.10;;;;;;;;;;5046284;28;20204;-77
2023/02/27 10:51:39;;;;;;;1.75;1.13;;;;;;;;;;5050811;28;20558;-76
2023/02/27 10:54:31;;;;;;;1.52;0.98;;;;;;;;;;5051531;28;20198;-76
2023/02/27 10:57:01;;;;;;;2.30;1.40;;;;;;;;;;5027970;28;20196;-76
2023/02/27 10:59:29;;;;;;;2.67;2.30;;;;;;;;;;5049956;28;20474;-75
2023/02/27 11:01:57;;;;;;;2.17;1.60;;;;;;;;;;5051068;28;20564;-76
2023/02/27 11:04:26;;;;;;;1.55;1.35;;;;;;;;;;5054058;28;20195;-76
2023/02/27 11:06:53;;;;;;;2.28;1.35;;;;;;;;;;5050189;28;20218;-80
2023/02/27 11:09:21;;;;;;;1.17;1.08;;;;;;;;;;5047628;28;20195;-78
2023/02/27 11:11:48;;;;;;;1.38;1.20;;;;;;;;;;5045360;28;20236;-80
2023/02/27 11:14:24;;;;;;;1.42;1.23;;;;;;;;;;5045161;28;20197;-77
2023/02/27 11:16:53;;;;;;;1.80;1.20;;;;;;;;;;5051985;28;20191;-76
2023/02/27 11:19:29;;;;;;;5.05;1.27;;;;;;;;;;5050851;28;20201;-75
2023/02/27 11:22:00;;;;;;;2.30;1.25;;;;;;;;;;5050360;28;20666;-77
2023/02/27 11:24:27;;;;;;;1.25;1.05;;;;;;;;;;5044661;28;20202;-78
2023/02/27 11:26:56;;;;;;;2.80;1.52;;;;;;;;;;5053853;28;20242;-78
2023/02/27 11:29:25;;;;;;;1.85;1.20;;;;;;;;;;5053835;28;20207;-77
2023/02/27 11:31:53;;;;;;;2.20;1.60;;;;;;;;;;5050855;28;20195;-77
2023/02/27 11:34:22;;;;;;;2.45;1.70;;;;;;;;;;5044315;28;20202;-74
2023/02/27 11:36:51;;;;;;;1.90;1.10;;;;;;;;;;5047955;28;20568;-74
2023/02/27 11:39:23;;;;;;;3.50;1.60;;;;;;;;;;5052164;28;20721;-74
2023/02/27 11:41:50;;;;;;;2.13;1.90;;;;;;;;;;5053851;28;20199;-74
2023/02/27 11:44:18;;;;;;;4.00;1.50;;;;;;;;;;5051143;28;20566;-74
2023/02/27 11:46:47;;;;;;;2.58;1.60;;;;;;;;;;5054183;28;20289;-74
2023/02/27 11:49:24;;;;;;;1.80;1.40;;;;;;;;;;5047161;28;20202;-74
2023/02/27 11:51:55;;;;;;;3.47;1.90;;;;;;;;;;5052732;28;20190;-74
2023/02/27 11:54:31;;;;;;;2.17;1.55;;;;;;;;;;5037387;28;20234;-75
2023/02/27 11:56:59;;;;;;;1.48;1.20;;;;;;;;;;5052341;28;20193;-74
2023/02/27 11:59:31;;;;;;;1.75;1.30;;;;;;;;;;5050823;28;20191;-74
2023/02/27 12:02:03;;;;;;;1.40;1.30;;;;;;;;;;5040709;28;20192;-76
2023/02/27 12:04:34;;;;;;;2.20;1.98;;;;;;;;;;5050475;28;20195;-74
2023/02/27 12:09:44;;;;;;;1.50;1.40;;;;;;;;;;5049792;28;20206;-75
2023/02/27 12:12:17;;;;;;;1.30;1.20;;;;;;;;;;5050802;28;20210;-75
2023/02/27 12:14:49;;;;;;;1.65;1.55;;;;;;;;;;5053605;28;20293;-73
2023/02/27 12:17:20;;;;;;;1.60;1.50;;;;;;;;;;5046956;28;20194;-72
2023/02/27 12:19:57;;;;;;;1.60;1.50;;;;;;;;;;5044620;28;20191;-72
2023/02/27 12:22:27;;;;;;;1.60;1.50;;;;;;;;;;5033322;28;20218;-72
2023/02/27 12:24:57;;;;;;;1.92;1.60;;;;;;;;;;5033640;28;20195;-72
2023/02/27 12:27:26;;;;;;;2.85;1.60;;;;;;;;;;5020043;28;20480;-72
2023/02/27 12:29:56;;;;;;;1.70;1.58;;;;;;;;;;5032592;28;20212;-75
2023/02/27 12:32:26;;;;;;;7.18;1.85;;;;;;;;;;5012950;28;20235;-72
2023/02/27 12:34:55;;;;;;;1.73;1.48;;;;;;;;;;5012664;28;20207;-72
2023/02/27 12:37:24;;;;;;;2.80;1.90;;;;;;;;;;5030526;28;20191;-73
2023/02/27 12:39:52;;;;;;;3.00;1.30;;;;;;;;;;5033089;28;20576;-73
2023/02/27 12:42:26;;;;;;;1.42;1.33;;;;;;;;;;5027623;28;20568;-72
2023/02/27 12:45:02;;;;;;;3.15;1.63;;;;;;;;;;5032938;28;20207;-73
2023/02/27 12:47:36;;;;;;;1.92;1.73;;;;;;;;;;5026481;28;20460;-72
2023/02/27 12:50:05;;;;;;;2.20;1.77;;;;;;;;;;5030507;28;20207;-72
2023/02/27 12:52:37;;;;;;;1.65;1.40;;;;;;;;;;5028059;28;20199;-72
2023/02/27 12:55:08;;;;;;;3.75;1.67;;;;;;;;;;5024254;28;20207;-72
2023/02/27 12:58:08;;;;;;;2.33;1.50;;;;;;;;;;5028200;28;20218;-72
2023/02/27 13:00:43;;;;;;;1.85;1.42;;;;;;;;;;4948681;29;20201;-73
2023/02/27 13:03:13;;;;;;;1.10;1.00;;;;;;;;;;4949615;28;20224;-73
2023/02/27 13:05:45;;;;;;;1.85;1.13;;;;;;;;;;4974158;28;20573;-72
2023/02/27 13:08:28;;;;;;;1.75;1.42;;;;;;;;;;5016962;28;20226;-72
2023/02/27 13:10:59;;;;;;;2.40;1.33;;;;;;;;;;5023361;28;20568;-74
2023/02/27 13:13:27;;;;;;;1.60;1.40;;;;;;;;;;5026012;28;20211;-73
2023/02/27 13:15:55;;;;;;;2.67;1.90;;;;;;;;;;5012007;28;20210;-74
2023/02/27 13:18:31;;;;;;;3.63;1.65;;;;;;;;;;5012156;28;20223;-73
2023/02/27 13:21:01;;;;;;;1.98;1.15;;;;;;;;;;5029680;28;20199;-73
2023/02/27 13:23:31;;;;;;;2.50;1.20;;;;;;;;;;5031754;28;20198;-73
2023/02/27 13:26:01;;;;;;;1.40;1.30;;;;;;;;;;5016758;28;20203;-77
2023/02/27 13:28:29;;;;;;;1.50;1.35;;;;;;;;;;5022882;28;20231;-74
2023/02/27 13:31:01;;;;;;;1.63;1.30;;;;;;;;;;5018260;28;20685;-72
2023/02/27 13:33:33;;;;;;;1.40;1.30;;;;;;;;;;5028057;28;20278;-75
2023/02/27 13:36:05;;;;;;;4.72;1.40;;;;;;;;;;5031607;28;20672;-74
2023/02/27 13:38:35;;;;;;;3.42;1.60;;;;;;;;;;5031766;28;20211;-74
2023/02/27 13:41:20;;;;;;;2.90;1.42;;;;;;;;;;5031527;28;20669;-73
2023/02/27 13:43:47;;;;;;;2.22;1.45;;;;;;;;;;5016512;28;20191;-75
2023/02/27 13:46:22;;;;;;;3.80;1.73;;;;;;;;;;5027948;28;20207;-75
2023/02/27 13:48:52;;;;;;;2.10;1.58;;;;;;;;;;5031275;28;20215;-75
2023/02/27 13:54:32;;;;;;;2.35;1.50;;;;;;;;;;5011814;28;20204;-75
2023/02/27 13:57:21;;;;;;;2.15;1.65;;;;;;;;;;5012201;28;20199;-74
2023/02/27 13:59:56;;;;;;;4.95;1.20;;;;;;;;;;5018366;28;20199;-80
2023/02/27 14:02:31;;;;;;;3.65;1.60;;;;;;;;;;5023876;28;20572;-76
2023/02/27 14:05:00;;;;;;;3.50;1.67;;;;;;;;;;5031469;28;20191;-76
2023/02/27 14:07:28;;;;;;;1.65;1.48;;;;;;;;;;5012988;28;20231;-76
2023/02/27 14:10:01;;;;;;;2.50;1.70;;;;;;;;;;5028946;28;20210;-77
2023/02/27 14:12:29;;;;;;;3.33;1.60;;;;;;;;;;5030134;28;20222;-76
2023/02/27 14:14:56;;;;;;;1.75;1.42;;;;;;;;;;5029240;28;20203;-76
2023/02/27 14:17:40;;;;;;;2.33;1.30;;;;;;;;;;5031297;28;20227;-77
2023/02/27 14:20:12;;;;;;;1.88;1.38;;;;;;;;;;5029935;28;20199;-76
2023/02/27 14:22:41;;;;;;;2.33;1.48;;;;;;;;;;5031088;28;20206;-76
2023/02/27 14:25:32;;;;;;;2.20;1.50;;;;;;;;;;5030910;28;20203;-77
2023/02/27 14:28:01;;;;;;;2.00;1.50;;;;;;;;;;5011101;28;20219;-77
2023/02/27 14:30:33;;;;;;;2.97;1.80;;;;;;;;;;5028284;28;20203;-77
2023/02/27 14:33:02;;;;;;;2.45;1.30;;;;;;;;;;5027873;28;20196;-77
2023/02/27 14:35:31;;;;;;;2.78;1.60;;;;;;;;;;5017699;28;20569;-76
2023/02/27 14:37:59;;;;;;;1.95;1.42;;;;;;;;;;5020418;28;20203;-76
2023/02/27 14:40:28;;;;;;;1.35;1.25;;;;;;;;;;5024411;28;20203;-77
2023/02/27 14:43:02;;;;;;;1.30;1.20;;;;;;;;;;5018683;28;20572;-78
2023/02/27 14:45:30;;;;;;;1.33;1.23;;;;;;;;;;5029939;28;20203;-76
2023/02/27 14:47:57;;;;;;;1.52;1.05;;;;;;;;;;5028695;28;20234;-77
2023/02/27 14:50:27;;;;;;;2.45;1.30;;;;;;;;;;5025071;28;20665;-76
2023/02/27 14:52:55;;;;;;;2.33;1.30;;;;;;;;;;5011420;28;20204;-77
2023/02/27 14:55:26;;;;;;;1.70;1.35;;;;;;;;;;5026564;28;20574;-76
2023/02/27 14:57:54;;;;;;;3.35;1.80;;;;;;;;;;5027902;28;20219;-76
2023/02/27 15:00:36;;;;;;;2.67;1.50;;;;;;;;;;5030196;28;20196;-76
2023/02/27 15:03:09;;;;;;;3.95;1.75;;;;;;;;;;5027594;28;20274;-77
2023/02/27 15:05:37;;;;;;;1.58;1.10;;;;;;;;;;5028557;28;20199;-77
2023/02/27 15:08:06;;;;;;;1.88;1.60;;;;;;;;;;5012062;28;20247;-76